メインページ
METAR-TAF:

METAR-TAF

空港 :

ドバイ, アラブ首長国連邦

ドバイ国際空港

緯度: 25-15-10N, 経度: 055-21-52E, 海抜: 8m

現時点の気象観測

当レポートは33分前の16:00(UTC)に作成
北/北西の風 7kt、北西から北/北東の間で変化する
気温 35°C
湿度 56%
気圧 998 hPa
視程10km以上
1,500メートル以下は雲なし、積乱雲なし

METAR: OMDB 221600Z 33007KT 310V030 CAVOK 35/25 Q0998 NOSIG

時間: 20:33 (16:33 UTC)

予報

当レポートは5時間32分前の11:01(UTC)に作成
予報は22日の 12時(UTC)から 23日の 18時(UTC)まで有効
北西の風 12kt
視程: 8000m
22日の 18時(UTC)から 22日の 20時(UTC)まで徐々に
南東の風 5kt
確率 30%
23日の 00時(UTC)から 23日の 04時(UTC)まで
視程: 3000m
高度800ftの千切れ雲あり
煙霧
23日の 06時(UTC)から 23日の 08時(UTC)まで徐々に
西/北西の風 12kt
23日の 15時(UTC)から 23日の 17時(UTC)まで徐々に
南/南東の風 5kt

TAF: OMDB 221101Z 2212/2318 32012KT 8000 NSC BECMG 2218/2220 14005KT PROB30 2300/2304 3000 HZ BKN008 BECMG 2306/2308 30012KT BECMG 2315/2317 16005KT

4,000以上の空港の気象観測と天気予報(METAR報とTAF報)

利用可能な観測所は地図上に黄色い丸と赤い丸で示す。

丸の上にカーソルを重ねると観測所名を参照できる。

次にクリックすると気象観測と天気予報を参照できる。

マップの切り替え:黒色「×」印の緑ボタンをクリックして拡大、「-」印の緑ボタンをクリックして縮小、緑色の三角印をクリックして隣りの地図に切り替え


METAR-TAF: